Penfret — FGA4987 — position and weather

sailwx.info

Track history (hours):
 
Tides and Currents Weather Stations Pressure Air Temp Water Temp Dewpoint Dewpoint Depression Visibility Wind Speed Wind Dir Waves Ship Positions

Penfret

Last reported at 2017-Aug-21 14:03 UTC. Time now 2017-Sep-24 03:36 UTC.
Position N 47°36' W 003°26'.
Warning: this ship's position is 33 days out of date.

MMSI: 227351110.

Date/timePositionNaut miles runAvg speedWind from/ knotsBaromVisibWave heightAir tempDewpointWater temp
2017-Aug-21 14:03N 47°36' W 003°26'1 5.2
2017-Aug-21 13:52N 47°36' W 003°25'2 2.6
2017-Aug-21 13:11N 47°37' W 003°23'2 0.8
2017-Aug-21 10:37N 47°38' W 003°25'2 5.7
2017-Aug-21 10:20N 47°37' W 003°23'2 6.1
2017-Aug-21 10:00N 47°36' W 003°21'3 6.0
2017-Aug-21 09:30N 47°34' W 003°17'3 5.9
2017-Aug-21 09:00N 47°32' W 003°14'3 6.0
2017-Aug-21 08:31N 47°30' W 003°11'12 2.6
2017-Aug-21 03:47N 47°33' W 002°54'0 0.0
2017-Aug-20 17:17N 47°33' W 002°54'0 0.0
2017-Aug-20 16:53N 47°33' W 002°54'2 0.0
2017-Aug-18 16:40N 47°35' W 002°53'1 5.1
2017-Aug-18 16:29N 47°36' W 002°52'1 1.5
2017-Aug-18 15:58N 47°36' W 002°51'0 0.0
2017-Aug-18 15:26N 47°36' W 002°51'0 0.0
2017-Aug-18 14:38N 47°36' W 002°51'0 0.0
2017-Aug-18 14:29N 47°36' W 002°51'0 0.0
2017-Aug-18 11:18N 47°36' W 002°51'0 0.3
2017-Aug-18 10:59N 47°36' W 002°51'0 0.0
2017-Aug-18 09:51N 47°36' W 002°51'0 0.4
2017-Aug-18 09:30N 47°36' W 002°51'2 3.2
2017-Aug-18 09:00N 47°35' W 002°52'4 0.1
2017-Aug-16 11:54N 47°32' W 002°56'2 3.9
2017-Aug-16 11:22N 47°32' W 002°59'2 5.0
2017-Aug-16 11:00N 47°34' W 003°00'1 0.1
2017-Aug-15 14:55N 47°35' W 003°01'2 4.9
2017-Aug-15 14:29N 47°33' W 003°01'7 4.3
2017-Aug-15 12:44N 47°26' W 003°06'2 3.6
2017-Aug-15 12:17N 47°27' W 003°07'1 3.7
2017-Aug-15 12:00N 47°28' W 003°09'2 4.3
2017-Aug-15 11:30N 47°29' W 003°11'2 5.0
2017-Aug-15 11:00N 47°31' W 003°13'3 5.5
2017-Aug-15 10:30N 47°34' W 003°15'3 6.0
2017-Aug-15 10:00N 47°36' W 003°17'3 5.9
2017-Aug-15 09:30N 47°39' W 003°20'3 6.3
2017-Aug-15 09:00N 47°41' W 003°22'2 4.3
2017-Aug-15 08:30N 47°43' W 003°22'0 0.3
2017-Aug-15 08:00N 47°43' W 003°22'0 0.0
2017-Aug-15 07:24N 47°43' W 003°22'0 0.0
2017-Aug-14 21:05N 47°43' W 003°22'0 0.0
2017-Aug-14 20:59N 47°43' W 003°22'0 0.0
2017-Aug-14 20:29N 47°43' W 003°22'0 0.0
2017-Aug-14 19:59N 47°43' W 003°22'0 0.0
2017-Aug-14 19:29N 47°43' W 003°22'0 0.0
2017-Aug-13 13:54N 47°43' W 003°22'0 0.0
2017-Aug-13 13:30N 47°43' W 003°22'0 0.9
2017-Aug-13 13:00N 47°43' W 003°22'2 4.5
2017-Aug-13 12:30N 47°41' W 003°24'  
Track history (hours):
 
Tides and Currents Weather Stations Pressure Air Temp Water Temp Dewpoint Dewpoint Depression Visibility Wind Speed Wind Dir Waves Ship Positions

Penfret

Last reported at 2017-Aug-21 14:03 UTC. Time now 2017-Sep-24 03:36 UTC.
Position N 47°36' W 003°26'.
Warning: this ship's position is 33 days out of date.

MMSI: 227351110.

Date/timePositionNaut miles runAvg speedWind from/ knotsBaromVisibWave heightAir tempDewpointWater temp
2017-Aug-21 14:03N 47°36' W 003°26'1 5.2
2017-Aug-21 13:52N 47°36' W 003°25'2 2.6
2017-Aug-21 13:11N 47°37' W 003°23'2 0.8
2017-Aug-21 10:37N 47°38' W 003°25'2 5.7
2017-Aug-21 10:20N 47°37' W 003°23'2 6.1
2017-Aug-21 10:00N 47°36' W 003°21'3 6.0
2017-Aug-21 09:30N 47°34' W 003°17'3 5.9
2017-Aug-21 09:00N 47°32' W 003°14'3 6.0
2017-Aug-21 08:31N 47°30' W 003°11'12 2.6
2017-Aug-21 03:47N 47°33' W 002°54'0 0.0
2017-Aug-20 17:17N 47°33' W 002°54'0 0.0
2017-Aug-20 16:53N 47°33' W 002°54'2 0.0
2017-Aug-18 16:40N 47°35' W 002°53'1 5.1
2017-Aug-18 16:29N 47°36' W 002°52'1 1.5
2017-Aug-18 15:58N 47°36' W 002°51'0 0.0
2017-Aug-18 15:26N 47°36' W 002°51'0 0.0
2017-Aug-18 14:38N 47°36' W 002°51'0 0.0
2017-Aug-18 14:29N 47°36' W 002°51'0 0.0
2017-Aug-18 11:18N 47°36' W 002°51'0 0.3
2017-Aug-18 10:59N 47°36' W 002°51'0 0.0
2017-Aug-18 09:51N 47°36' W 002°51'0 0.4
2017-Aug-18 09:30N 47°36' W 002°51'2 3.2
2017-Aug-18 09:00N 47°35' W 002°52'4 0.1
2017-Aug-16 11:54N 47°32' W 002°56'2 3.9
2017-Aug-16 11:22N 47°32' W 002°59'2 5.0
2017-Aug-16 11:00N 47°34' W 003°00'1 0.1
2017-Aug-15 14:55N 47°35' W 003°01'2 4.9
2017-Aug-15 14:29N 47°33' W 003°01'7 4.3
2017-Aug-15 12:44N 47°26' W 003°06'2 3.6
2017-Aug-15 12:17N 47°27' W 003°07'1 3.7
2017-Aug-15 12:00N 47°28' W 003°09'2 4.3
2017-Aug-15 11:30N 47°29' W 003°11'2 5.0
2017-Aug-15 11:00N 47°31' W 003°13'3 5.5
2017-Aug-15 10:30N 47°34' W 003°15'3 6.0
2017-Aug-15 10:00N 47°36' W 003°17'3 5.9
2017-Aug-15 09:30N 47°39' W 003°20'3 6.3
2017-Aug-15 09:00N 47°41' W 003°22'2 4.3
2017-Aug-15 08:30N 47°43' W 003°22'0 0.3
2017-Aug-15 08:00N 47°43' W 003°22'0 0.0
2017-Aug-15 07:24N 47°43' W 003°22'0 0.0
2017-Aug-14 21:05N 47°43' W 003°22'0 0.0
2017-Aug-14 20:59N 47°43' W 003°22'0 0.0
2017-Aug-14 20:29N 47°43' W 003°22'0 0.0
2017-Aug-14 19:59N 47°43' W 003°22'0 0.0
2017-Aug-14 19:29N 47°43' W 003°22'0 0.0
2017-Aug-13 13:54N 47°43' W 003°22'0 0.0
2017-Aug-13 13:30N 47°43' W 003°22'0 0.9
2017-Aug-13 13:00N 47°43' W 003°22'2 4.5
2017-Aug-13 12:30N 47°41' W 003°24'  

Dump ship's entire track history